Latest Weather Observations for Pirlangimpi

IDD60801

Issued at 8:01 pm CST Monday 31 August 2015 (issued every 30 minutes, with the page automatically refreshed every 10 minutes)

About weather observations | Map of weather stations | Latest weather observations for NT | Other Formats
Station Details ID: 014142 Name: PIRLANGIMPI AIRPORT Lat: -11.40 Lon: 130.42 Height: 18.3 m
Data from the previous 72 hours. | See also: Recent months at Pirlangimpi
Date/Time
CST
Temp
°C
App
Temp
°C
Dew
Point
Rel
Hum
%
Delta-T
°C
Wind Press
QNH
hPa
Press
MSL
hPa
Rain
since 9 am
mm
Dir
 
Spd
km/h
Gust
km/h
Spd
kts
Gust
kts
31/08:00pm 25.6 29.4 21.7 79 2.6 WSW 4 6 2 3 1013.5 1013.4 0.0
31/07:30pm 26.1 30.3 21.7 77 2.9 WNW 2 6 1 3 1013.2 1013.1 0.0
31/07:00pm 26.6 30.4 21.6 74 3.3 WNW 4 6 2 3 1013.1 1013.0 0.0
31/06:30pm 27.2 30.8 21.2 69 4.0 NNW 4 9 2 5 1012.9 1012.8 0.0
31/06:00pm 27.9 31.1 21.2 67 4.5 NW 6 11 3 6 1012.7 1012.6 0.0
31/05:30pm 28.1 31.1 20.9 65 4.8 N 6 9 3 5 1012.7 1012.6 0.0
31/05:00pm 27.9 30.8 21.0 66 4.6 NNW 7 15 4 8 1012.6 1012.5 0.0
31/04:30pm 28.5 30.6 21.0 64 5.0 NNW 11 17 6 9 1012.5 1012.4 0.0
31/04:00pm 29.5 32.0 21.7 63 5.2 NW 11 19 6 10 1012.7 1012.6 0.0
31/03:30pm 28.9 31.2 21.4 64 5.0 NW 11 20 6 11 1013.0 1012.9 0.0
31/03:00pm 31.0 32.9 22.0 58 6.1 NW 15 24 8 13 1013.0 1012.9 0.0
31/02:30pm 30.6 32.3 21.7 59 6.0 NW 15 24 8 13 1013.2 1013.1 0.0
31/02:00pm 31.4 32.9 21.3 55 6.8 NW 15 24 8 13 1013.4 1013.3 0.0
31/01:30pm 32.4 35.1 22.2 55 7.0 NW 11 20 6 11 1013.7 1013.6 0.0
31/01:00pm 31.4 33.4 21.6 56 6.6 NW 13 20 7 11 1014.1 1014.0 0.0
31/12:30pm 31.1 33.5 21.6 57 6.4 NW 11 17 6 9 1014.5 1014.4 0.0
31/12:00pm 30.7 33.9 21.2 57 6.4 NW 6 9 3 5 1014.9 1014.8 0.0
31/11:30am 30.9 33.9 20.8 55 6.7 W 6 9 3 5 1015.3 1015.2 0.0
31/11:00am 30.4 32.9 20.3 54 6.7 SSW 7 15 4 8 1015.9 1015.8 0.0
31/10:30am 30.8 33.5 20.7 55 6.7 ESE 7 13 4 7 1016.1 1016.0 0.0
31/10:00am 29.7 33.0 20.8 58 5.9 N 4 7 2 4 1016.1 1016.0 0.0
31/09:30am 28.6 31.6 20.9 63 5.1 NE 6 13 3 7 1015.9 1015.8 0.0
31/09:00am 27.3 30.8 21.8 72 3.7 ENE 6 11 3 6 1015.8 1015.7 0.0
31/08:30am 24.6 29.0 22.8 90 1.2 NE 4 7 2 4 1015.5 1015.4 0.0
31/08:00am 23.1 27.3 22.4 96 0.5 NE 4 6 2 3 1015.3 1015.2 0.0
31/07:30am 21.6 25.2 20.6 94 0.6 NE 2 4 1 2 1015.3 1015.2 0.0
31/07:00am 21.5 25.1 20.5 94 0.6 NNE 2 4 1 2 1014.9 1014.8 0.0
31/06:30am 21.3 24.7 20.1 93 0.8 NE 2 4 1 2 1014.6 1014.5 0.0
31/06:00am 21.6 25.1 20.4 93 0.8 NE 2 4 1 2 1014.4 1014.3 0.0
31/05:30am 22.0 26.1 20.8 93 0.8 CALM 0 0 0 0 1014.2 1014.1 0.0
31/05:00am 22.1 25.7 21.3 95 0.5 NE 4 6 2 3 1014.2 1014.1 0.0
31/04:30am 21.6 24.7 20.2 92 0.9 NE 4 4 2 2 1014.3 1014.2 0.0
31/04:00am 21.7 25.3 20.5 93 0.8 NE 2 4 1 2 1014.3 1014.2 0.0
31/03:30am 21.7 25.2 20.3 92 0.9 NE 2 4 1 2 1014.5 1014.4 0.0
31/03:00am 21.6 25.0 20.2 92 0.9 NNE 2 4 1 2 1014.5 1014.4 0.0
31/02:30am 21.7 25.2 20.3 92 0.9 NNE 2 2 1 1 1014.7 1014.6 0.0
31/02:00am 21.8 25.6 20.1 90 1.1 CALM 0 4 0 2 1014.9 1014.8 0.0
31/01:30am 22.2 25.9 20.7 91 1.0 NE 2 4 1 2 1015.3 1015.2 0.0
31/01:00am 22.5 26.5 20.6 89 1.2 CALM 0 0 0 0 1015.4 1015.3 0.0
31/12:30am 22.5 25.8 20.8 90 1.1 NE 4 6 2 3 1015.7 1015.6 0.0
31/12:00am 22.7 26.9 21.0 90 1.1 CALM 0 0 0 0 1015.8 1015.7 0.0
 
Date/Time
CST
Temp
°C
App
Temp
°C
Dew
Point
Rel
Hum
%
Delta-T
°C
Wind Press
QNH
hPa
Press
MSL
hPa
Rain
since 9 am
mm
Dir
 
Spd
km/h
Gust
km/h
Spd
kts
Gust
kts
30/11:30pm 23.1 27.3 21.0 88 1.4 CALM 0 0 0 0 1015.8 1015.7 0.0
30/11:00pm 23.3 27.6 21.2 88 1.4 CALM 0 0 0 0 1015.5 1015.4 0.0
30/10:30pm 23.6 27.9 21.1 86 1.6 CALM 0 0 0 0 1015.2 1015.1 0.0
30/10:00pm 23.9 28.2 21.2 85 1.8 CALM 0 0 0 0 1015.0 1014.9 0.0
30/09:30pm 24.4 28.9 21.5 84 1.9 CALM 0 4 0 2 1014.8 1014.7 0.0
30/09:00pm 24.9 29.6 22.0 84 1.9 CALM 0 2 0 1 1014.6 1014.5 0.0
30/08:30pm 25.0 29.4 21.3 80 2.4 CALM 0 0 0 0 1014.4 1014.3 0.0
30/08:00pm 25.5 29.5 21.4 78 2.7 NW 2 4 1 2 1014.1 1014.0 0.0
30/07:30pm 25.8 29.7 20.4 72 3.5 CALM 0 0 0 0 1013.6 1013.5 0.0
30/07:00pm 26.8 30.4 20.6 69 4.1 N 2 6 1 3 1013.4 1013.3 0.0
30/06:30pm 27.9 31.3 21.0 66 4.6 N 4 7 2 4 1013.1 1013.0 0.0
30/06:00pm 28.5 31.8 21.8 67 4.5 WNW 7 15 4 8 1013.0 1012.9 0.0
30/05:30pm 29.8 32.9 21.5 61 5.6 NW 7 15 4 8 1013.0 1012.9 0.0
30/05:00pm 31.0 34.3 21.8 58 6.2 NW 7 13 4 7 1012.9 1012.8 0.0
30/04:30pm 32.3 35.9 22.1 55 6.9 W 6 15 3 8 1012.6 1012.5 0.0
30/04:00pm 30.6 34.3 21.4 58 6.2 NNW 4 9 2 5 1012.4 1012.3 0.0
30/03:30pm 31.6 33.4 19.6 49 7.9 NE 9 22 5 12 1012.5 1012.4 0.0
30/03:00pm 32.2 33.7 18.0 42 9.1 E 7 17 4 9 1012.6 1012.5 0.0
30/02:30pm 33.5 35.1 19.2 43 9.4 SE 9 19 5 10 1012.8 1012.7 0.0
30/02:00pm 33.9 36.4 20.3 45 9.1 ESE 7 17 4 9 1013.2 1013.1 0.0
30/01:30pm 33.3 34.3 19.4 44 9.2 ENE 13 24 7 13 1013.6 1013.5 0.0
30/01:00pm 32.5 34.2 20.1 48 8.2 E 11 19 6 10 1014.1 1014.0 0.0
30/12:30pm 31.7 32.9 20.0 50 7.7 ENE 13 22 7 12 1014.6 1014.5 0.0
30/12:00pm 31.9 34.6 21.4 53 7.1 SE 9 20 5 11 1015.1 1015.0 0.0
30/11:30am 31.7 33.8 20.9 52 7.2 ENE 11 22 6 12 1015.7 1015.6 0.0
30/11:00am 29.9 31.9 19.9 55 6.6 E 9 22 5 12 1016.2 1016.1 0.0
30/10:30am 29.6 31.5 20.5 58 6.0 ENE 11 22 6 12 1016.4 1016.3 0.0
30/10:00am 29.0 30.2 20.7 61 5.5 ENE 15 24 8 13 1016.4 1016.3 0.0
30/09:30am 27.9 29.4 20.5 64 4.9 ENE 13 22 7 12 1016.5 1016.4 0.0
30/09:00am 27.0 29.9 21.1 70 3.9 E 7 11 4 6 1016.2 1016.1 -
30/08:30am 25.3 28.3 21.2 78 2.7 ESE 7 11 4 6 1016.1 1016.0 -
30/08:00am 24.0 26.7 20.7 82 2.2 ESE 7 9 4 5 1015.9 1015.8 -
30/07:30am 23.0 25.7 20.3 85 1.7 E 6 7 3 4 1015.4 1015.3 -
30/07:00am 21.9 24.4 19.8 88 1.3 E 6 6 3 3 1015.1 1015.0 -
30/06:30am 21.6 24.3 19.5 88 1.3 E 4 6 2 3 1014.8 1014.7 -
30/06:00am 21.3 23.9 19.2 88 1.3 ESE 4 6 2 3 1014.7 1014.6 -
30/05:30am 21.6 24.4 19.7 89 1.2 ESE 4 6 2 3 1014.4 1014.3 -
30/05:00am 21.7 24.6 19.8 89 1.2 E 4 4 2 2 1014.2 1014.1 -
30/04:30am 21.8 24.9 20.3 91 1.0 ESE 4 4 2 2 1014.0 1013.9 -
30/04:00am 21.6 25.4 20.1 91 1.0 CALM 0 2 0 1 1014.0 1013.9 -
30/03:30am 21.7 24.8 20.2 91 1.0 SSE 4 4 2 2 1014.2 1014.1 -
30/03:00am 22.0 25.3 20.8 93 0.8 SE 4 6 2 3 1014.3 1014.2 0.0
30/02:30am 21.6 24.6 20.1 91 1.0 SE 4 6 2 3 1014.5 1014.4 -
30/02:00am 21.2 24.7 19.5 90 1.1 CALM 0 0 0 0 1014.8 1014.7 -
30/01:30am 21.3 24.7 19.4 89 1.2 CALM 0 0 0 0 1014.8 1014.7 -
30/01:00am 21.5 24.9 19.4 88 1.3 CALM 0 0 0 0 1014.9 1014.8 -
30/12:30am 21.8 25.3 19.5 87 1.5 CALM 0 0 0 0 1015.1 1015.0 -
30/12:00am 21.9 25.4 19.6 87 1.5 CALM 0 0 0 0 1015.1 1015.0 -
 
Date/Time
CST
Temp
°C
App
Temp
°C
Dew
Point
Rel
Hum
%
Delta-T
°C
Wind Press
QNH
hPa
Press
MSL
hPa
Rain
since 9 am
mm
Dir
 
Spd
km/h
Gust
km/h
Spd
kts
Gust
kts
29/11:30pm 22.1 25.6 19.5 85 1.7 CALM 0 0 0 0 1015.2 1015.1 -
29/11:00pm 22.5 26.0 19.5 83 1.9 CALM 0 0 0 0 1015.3 1015.2 -
29/10:30pm 23.2 26.7 19.6 80 2.3 CALM 0 0 0 0 1015.2 1015.1 -
29/10:00pm 23.8 27.1 19.9 79 2.5 ENE 2 4 1 2 1015.2 1015.1 -
29/09:30pm 24.0 27.0 20.1 79 2.5 NE 4 6 2 3 1015.1 1015.0 -
29/09:00pm 24.2 27.6 20.1 78 2.7 NNE 2 6 1 3 1014.9 1014.8 0.0
29/08:30pm 24.8 28.3 20.3 76 2.9 NNE 2 4 1 2 1014.8 1014.7 -
29/08:00pm 25.4 28.6 20.4 74 3.3 NNE 4 6 2 3 1014.4 1014.3 -
29/07:30pm 26.0 28.9 20.6 72 3.5 NNE 6 9 3 5 1014.1 1014.0 -
29/07:00pm 26.4 29.1 20.3 69 4.0 NNE 6 11 3 6 1013.9 1013.8 -
29/06:30pm 27.5 29.3 20.3 65 4.7 ENE 11 20 6 11 1013.8 1013.7 -
29/06:00pm 28.3 30.1 20.3 62 5.3 ENE 11 17 6 9 1013.5 1013.4 -
29/05:30pm 29.0 30.2 19.9 58 6.0 ENE 13 24 7 13 1013.2 1013.1 -
29/05:00pm 29.6 31.7 20.2 57 6.2 NE 9 17 5 9 1012.8 1012.7 -
29/04:30pm 30.0 32.6 20.0 55 6.6 NNE 6 11 3 6 1012.6 1012.5 -
29/04:00pm 31.6 34.1 20.2 50 7.6 NE 7 15 4 8 1012.5 1012.4 -
29/03:30pm 32.5 34.5 20.7 49 7.9 NNE 11 19 6 10 1012.6 1012.5 -
29/03:00pm 32.3 34.4 20.2 48 8.0 NNE 9 19 5 10 1012.9 1012.8 -
29/02:30pm 33.6 35.4 20.4 46 8.8 NE 11 22 6 12 1013.2 1013.1 -
29/02:00pm 33.3 33.6 20.5 47 8.6 NE 19 35 10 19 1013.7 1013.6 -
29/01:30pm 33.5 33.8 18.0 39 10.0 ENE 13 24 7 13 1014.1 1014.0 -
29/02:00am 21.5 25.0 19.6 89 1.2 CALM 0 0 0 0 1014.7 1014.6 0.0
29/01:30am 21.6 25.2 19.7 89 1.2 CALM 0 0 0 0 1014.9 1014.8 0.0
29/01:00am 21.8 25.3 19.5 87 1.5 CALM 0 0 0 0 1015.0 1014.9 0.0
29/12:30am 22.0 25.5 19.5 86 1.6 CALM 0 0 0 0 1015.3 1015.2 0.0
29/12:00am 22.3 26.1 20.2 88 1.4 CALM 0 0 0 0 1015.5 1015.4 0.0
 
Date/Time
CST
Temp
°C
App
Temp
°C
Dew
Point
Rel
Hum
%
Delta-T
°C
Wind Press
QNH
hPa
Press
MSL
hPa
Rain
since 9 am
mm
Dir
 
Spd
km/h
Gust
km/h
Spd
kts
Gust
kts
28/11:30pm 22.4 26.2 20.1 87 1.5 CALM 0 0 0 0 1015.6 1015.5 0.0
28/11:00pm 22.6 26.2 19.8 84 1.8 CALM 0 0 0 0 1015.6 1015.5 0.0
28/10:30pm 22.8 26.4 19.8 83 1.9 CALM 0 0 0 0 1015.5 1015.4 0.0
28/10:00pm 23.1 26.7 19.7 81 2.2 CALM 0 0 0 0 1015.2 1015.1 0.0
28/09:30pm 23.4 26.9 19.5 79 2.5 CALM 0 0 0 0 1015.0 1014.9 0.0
28/09:00pm 24.0 27.6 19.7 77 2.8 CALM 0 0 0 0 1014.7 1014.6 0.0
28/08:30pm 24.6 28.2 19.7 74 3.2 CALM 0 0 0 0 1014.3 1014.2 0.0

Other Formats:

Comma delimited format used in spreadsheet applications
http://www.bom.gov.au/fwo/IDD60801/IDD60801.94119.axf

JavaScript Object Notation format (JSON) in row-major order
http://www.bom.gov.au/fwo/IDD60801/IDD60801.94119.json